Hauptseite
METAR-TAF:

METAR-TAF

Flughäfen :

Flughafen Fuaʻamotu

Tongatapu, Tonga

Breite: 21-14S, Länge: 175-09W, Höhe: 38 m

Beobachtung

Neuester Wetterbericht von vor 42 Minuten, um 03:00 UTC
Wind 9 kt aus Ost
Temperatur 25°C
Luftfeuchtigkeit 83%
Luftdruck 1015 hPa
Sichtweite 10 km oder mehr
Aufgelockert bewölkt in der Höhe von 1600 ft, Towering cumulus.
Geschlossene Wolkendecke in der Höhe von 11000 ft

METAR: NFTF 260300Z 09009KT 9999 SCT016TCU OVC110 25/22 Q1015

Zeit: 16:42 (03:42 UTC)

Prognose

Neuester Wetterbericht von vor 4 Stunden und 29 Minuten, um 23:13 UTC
Gültige Prognose vom 26 um 00 UTC bis 26 um 24 UTC
Wind 10 kt aus Ost
Sichtweite 10 km oder mehr
Leicht bewölkt in der Höhe von 1600 ft
Wahrscheinlichkeit 30%
vom 26 um 06 UTC bis 26 um 12 UTC
Sichtweite: 5000 m
Durchbrochene Bewölkung in der Höhe von 1500 ft
Regenschauer

TAF: NFTF 252313Z 2600/2624 09010KT 9999 FEW016 PROB30 2606/2612 5000 SHRA BKN015

Wetterbeobachtungen und Prognosen von mehr als 4000 Flughäfen (METAR und TAF Bericht).

Die verfügbaren Stationen werden durch gelbe und rote Markierungen auf der Karte dargestellt.

Führen Sie die Maus auf sie, um den Namen der Station zu sehen.

Darauf klicken, um die Beobachtung von Wetterbeobachtungen und Prognosen zu sehen.

Um die Karte zu ändern : klicken Sie auf den grünen Tasten mit einem schwarzen Kreuz Zum Vergrößern, auf den grünen Button mit einem Gedankenstrich zu verkleinern, oder auf die grünen Pfeile für benachbarte Karten.


METAR-TAF: